sensor_id;sensor_type;location;lat;lon;timestamp;P1;durP1;ratioP1;P2;durP2;ratioP2
48823;SDS011;34640;53.590;10.054;2023-12-22T00:00:42;24.08;;;3.83;;
48823;SDS011;34640;53.590;10.054;2023-12-22T00:03:15;20.90;;;2.80;;
48823;SDS011;34640;53.590;10.054;2023-12-22T00:05:48;25.77;;;3.10;;
48823;SDS011;34640;53.590;10.054;2023-12-22T00:08:21;20.48;;;3.15;;
48823;SDS011;34640;53.590;10.054;2023-12-22T00:10:54;23.27;;;3.25;;
48823;SDS011;34640;53.590;10.054;2023-12-22T00:13:29;30.55;;;3.42;;
48823;SDS011;34640;53.590;10.054;2023-12-22T00:16:06;17.60;;;2.83;;
48823;SDS011;34640;53.590;10.054;2023-12-22T00:18:39;23.42;;;4.55;;
48823;SDS011;34640;53.590;10.054;2023-12-22T00:21:12;29.42;;;3.45;;
48823;SDS011;34640;53.590;10.054;2023-12-22T00:23:47;34.65;;;3.53;;
48823;SDS011;34640;53.590;10.054;2023-12-22T00:26:20;31.63;;;3.88;;
48823;SDS011;34640;53.590;10.054;2023-12-22T00:28:54;27.05;;;3.25;;
48823;SDS011;34640;53.590;10.054;2023-12-22T00:31:28;28.27;;;3.15;;
48823;SDS011;34640;53.590;10.054;2023-12-22T00:34:01;18.88;;;2.70;;
48823;SDS011;34640;53.590;10.054;2023-12-22T00:36:34;25.33;;;3.00;;
48823;SDS011;34640;53.590;10.054;2023-12-22T00:39:07;28.05;;;4.20;;
48823;SDS011;34640;53.590;10.054;2023-12-22T00:41:40;25.95;;;3.63;;
48823;SDS011;34640;53.590;10.054;2023-12-22T00:44:15;24.92;;;5.80;;
48823;SDS011;34640;53.590;10.054;2023-12-22T00:46:48;29.75;;;2.70;;
48823;SDS011;34640;53.590;10.054;2023-12-22T00:49:22;29.20;;;4.22;;
48823;SDS011;34640;53.590;10.054;2023-12-22T00:51:55;15.13;;;2.33;;
48823;SDS011;34640;53.590;10.054;2023-12-22T00:54:28;25.45;;;2.90;;
48823;SDS011;34640;53.590;10.054;2023-12-22T00:57:03;29.33;;;3.20;;
48823;SDS011;34640;53.590;10.054;2023-12-22T00:59:37;28.65;;;4.10;;
48823;SDS011;34640;53.590;10.054;2023-12-22T01:02:16;32.42;;;3.38;;
48823;SDS011;34640;53.590;10.054;2023-12-22T01:04:51;24.55;;;3.08;;
48823;SDS011;34640;53.590;10.054;2023-12-22T01:07:24;26.30;;;3.13;;
48823;SDS011;34640;53.590;10.054;2023-12-22T01:09:59;30.80;;;3.63;;
48823;SDS011;34640;53.590;10.054;2023-12-22T01:12:33;25.67;;;3.40;;
48823;SDS011;34640;53.590;10.054;2023-12-22T01:15:07;31.27;;;4.80;;
48823;SDS011;34640;53.590;10.054;2023-12-22T01:17:40;39.97;;;4.15;;
48823;SDS011;34640;53.590;10.054;2023-12-22T01:20:14;25.63;;;2.72;;
48823;SDS011;34640;53.590;10.054;2023-12-22T01:22:47;19.98;;;2.95;;
48823;SDS011;34640;53.590;10.054;2023-12-22T01:25:20;20.77;;;2.35;;
48823;SDS011;34640;53.590;10.054;2023-12-22T01:27:53;21.88;;;2.92;;
48823;SDS011;34640;53.590;10.054;2023-12-22T01:30:27;19.52;;;2.58;;
48823;SDS011;34640;53.590;10.054;2023-12-22T01:33:01;13.45;;;2.80;;
48823;SDS011;34640;53.590;10.054;2023-12-22T01:35:34;23.27;;;2.35;;
48823;SDS011;34640;53.590;10.054;2023-12-22T01:38:06;14.75;;;2.00;;
48823;SDS011;34640;53.590;10.054;2023-12-22T01:40:39;16.83;;;1.55;;
48823;SDS011;34640;53.590;10.054;2023-12-22T01:43:13;10.13;;;1.38;;
48823;SDS011;34640;53.590;10.054;2023-12-22T01:45:50;12.10;;;1.48;;
48823;SDS011;34640;53.590;10.054;2023-12-22T01:51:01;6.80;;;1.10;;
48823;SDS011;34640;53.590;10.054;2023-12-22T01:53:34;10.88;;;1.20;;
48823;SDS011;34640;53.590;10.054;2023-12-22T01:56:10;10.70;;;1.30;;
48823;SDS011;34640;53.590;10.054;2023-12-22T01:58:43;9.95;;;0.60;;
48823;SDS011;34640;53.590;10.054;2023-12-22T02:01:18;4.75;;;0.50;;
48823;SDS011;34640;53.590;10.054;2023-12-22T02:03:52;5.85;;;1.20;;
48823;SDS011;34640;53.590;10.054;2023-12-22T02:06:28;9.88;;;1.00;;
48823;SDS011;34640;53.590;10.054;2023-12-22T02:09:02;7.47;;;1.17;;
48823;SDS011;34640;53.590;10.054;2023-12-22T02:11:37;11.70;;;0.90;;
48823;SDS011;34640;53.590;10.054;2023-12-22T02:14:10;5.65;;;0.68;;
48823;SDS011;34640;53.590;10.054;2023-12-22T02:16:48;10.40;;;1.73;;
48823;SDS011;34640;53.590;10.054;2023-12-22T02:19:32;10.27;;;0.90;;
48823;SDS011;34640;53.590;10.054;2023-12-22T02:22:13;8.40;;;0.95;;
48823;SDS011;34640;53.590;10.054;2023-12-22T02:24:48;11.07;;;1.13;;
48823;SDS011;34640;53.590;10.054;2023-12-22T02:27:23;13.55;;;1.40;;
48823;SDS011;34640;53.590;10.054;2023-12-22T02:30:06;14.00;;;1.65;;
48823;SDS011;34640;53.590;10.054;2023-12-22T02:32:43;8.85;;;1.08;;
48823;SDS011;34640;53.590;10.054;2023-12-22T02:35:19;16.45;;;2.10;;
48823;SDS011;34640;53.590;10.054;2023-12-22T02:37:56;12.23;;;2.25;;
48823;SDS011;34640;53.590;10.054;2023-12-22T02:40:32;10.60;;;1.13;;
48823;SDS011;34640;53.590;10.054;2023-12-22T02:43:07;7.18;;;1.27;;
48823;SDS011;34640;53.590;10.054;2023-12-22T02:45:40;10.32;;;1.55;;
48823;SDS011;34640;53.590;10.054;2023-12-22T02:48:13;13.35;;;2.30;;
48823;SDS011;34640;53.590;10.054;2023-12-22T02:50:46;11.90;;;1.63;;
48823;SDS011;34640;53.590;10.054;2023-12-22T02:53:19;12.52;;;1.58;;
48823;SDS011;34640;53.590;10.054;2023-12-22T02:55:53;21.65;;;2.42;;
48823;SDS011;34640;53.590;10.054;2023-12-22T02:58:27;12.13;;;1.20;;
48823;SDS011;34640;53.590;10.054;2023-12-22T03:01:00;17.52;;;2.10;;
48823;SDS011;34640;53.590;10.054;2023-12-22T03:03:33;17.70;;;2.92;;
48823;SDS011;34640;53.590;10.054;2023-12-22T03:06:08;8.30;;;1.10;;
48823;SDS011;34640;53.590;10.054;2023-12-22T03:08:41;6.63;;;0.88;;
48823;SDS011;34640;53.590;10.054;2023-12-22T03:11:15;8.52;;;0.82;;
48823;SDS011;34640;53.590;10.054;2023-12-22T03:13:48;8.48;;;0.70;;
48823;SDS011;34640;53.590;10.054;2023-12-22T03:16:20;7.88;;;0.77;;
48823;SDS011;34640;53.590;10.054;2023-12-22T03:18:53;5.22;;;0.80;;
48823;SDS011;34640;53.590;10.054;2023-12-22T03:21:26;4.53;;;1.05;;
48823;SDS011;34640;53.590;10.054;2023-12-22T03:23:59;4.45;;;0.60;;
48823;SDS011;34640;53.590;10.054;2023-12-22T03:26:33;4.80;;;0.57;;
48823;SDS011;34640;53.590;10.054;2023-12-22T03:29:06;4.10;;;0.60;;
48823;SDS011;34640;53.590;10.054;2023-12-22T03:31:39;5.63;;;0.50;;
48823;SDS011;34640;53.590;10.054;2023-12-22T03:34:12;5.70;;;0.65;;
48823;SDS011;34640;53.590;10.054;2023-12-22T03:36:45;3.78;;;0.35;;
48823;SDS011;34640;53.590;10.054;2023-12-22T03:39:20;4.07;;;0.82;;
48823;SDS011;34640;53.590;10.054;2023-12-22T03:41:55;6.28;;;0.68;;
48823;SDS011;34640;53.590;10.054;2023-12-22T03:44:27;4.72;;;0.35;;
48823;SDS011;34640;53.590;10.054;2023-12-22T03:47:00;6.88;;;0.50;;
48823;SDS011;34640;53.590;10.054;2023-12-22T03:49:33;9.45;;;0.60;;
48823;SDS011;34640;53.590;10.054;2023-12-22T03:52:06;4.93;;;0.50;;
48823;SDS011;34640;53.590;10.054;2023-12-22T03:54:39;4.13;;;0.60;;
48823;SDS011;34640;53.590;10.054;2023-12-22T03:57:14;4.97;;;0.70;;
48823;SDS011;34640;53.590;10.054;2023-12-22T03:59:47;5.00;;;0.70;;
48823;SDS011;34640;53.590;10.054;2023-12-22T04:02:20;9.27;;;1.20;;
48823;SDS011;34640;53.590;10.054;2023-12-22T04:04:53;13.80;;;0.85;;
48823;SDS011;34640;53.590;10.054;2023-12-22T04:07:26;12.20;;;1.40;;
48823;SDS011;34640;53.590;10.054;2023-12-22T04:09:59;10.27;;;1.58;;
48823;SDS011;34640;53.590;10.054;2023-12-22T04:12:34;10.95;;;1.02;;
48823;SDS011;34640;53.590;10.054;2023-12-22T04:15:08;21.02;;;2.40;;
48823;SDS011;34640;53.590;10.054;2023-12-22T04:17:42;12.13;;;1.60;;
48823;SDS011;34640;53.590;10.054;2023-12-22T04:20:15;11.93;;;1.30;;
48823;SDS011;34640;53.590;10.054;2023-12-22T04:22:48;16.27;;;1.08;;
48823;SDS011;34640;53.590;10.054;2023-12-22T04:25:21;18.05;;;2.20;;
48823;SDS011;34640;53.590;10.054;2023-12-22T04:27:57;17.70;;;1.70;;
48823;SDS011;34640;53.590;10.054;2023-12-22T04:30:30;13.85;;;1.83;;
48823;SDS011;34640;53.590;10.054;2023-12-22T04:33:04;12.60;;;1.48;;
48823;SDS011;34640;53.590;10.054;2023-12-22T04:35:37;13.90;;;1.77;;
48823;SDS011;34640;53.590;10.054;2023-12-22T04:38:10;12.25;;;1.85;;
48823;SDS011;34640;53.590;10.054;2023-12-22T04:40:43;13.95;;;2.50;;
48823;SDS011;34640;53.590;10.054;2023-12-22T04:43:17;16.08;;;2.15;;
48823;SDS011;34640;53.590;10.054;2023-12-22T04:45:50;15.52;;;1.63;;
48823;SDS011;34640;53.590;10.054;2023-12-22T04:48:22;16.90;;;2.22;;
48823;SDS011;34640;53.590;10.054;2023-12-22T04:50:55;17.40;;;1.33;;
48823;SDS011;34640;53.590;10.054;2023-12-22T04:53:28;12.77;;;1.60;;
48823;SDS011;34640;53.590;10.054;2023-12-22T04:56:03;12.60;;;1.77;;
48823;SDS011;34640;53.590;10.054;2023-12-22T04:58:37;17.02;;;2.00;;
48823;SDS011;34640;53.590;10.054;2023-12-22T05:01:11;15.23;;;1.60;;
48823;SDS011;34640;53.590;10.054;2023-12-22T05:03:44;10.77;;;1.20;;
48823;SDS011;34640;53.590;10.054;2023-12-22T05:06:17;12.23;;;1.58;;
48823;SDS011;34640;53.590;10.054;2023-12-22T05:08:50;14.18;;;1.15;;
48823;SDS011;34640;53.590;10.054;2023-12-22T05:11:23;17.95;;;1.45;;
48823;SDS011;34640;53.590;10.054;2023-12-22T05:13:59;13.57;;;1.50;;
48823;SDS011;34640;53.590;10.054;2023-12-22T05:16:32;10.30;;;1.25;;
48823;SDS011;34640;53.590;10.054;2023-12-22T05:19:06;9.75;;;1.10;;
48823;SDS011;34640;53.590;10.054;2023-12-22T05:21:39;11.55;;;1.50;;
48823;SDS011;34640;53.590;10.054;2023-12-22T05:24:12;11.55;;;0.88;;
48823;SDS011;34640;53.590;10.054;2023-12-22T05:26:44;13.13;;;0.95;;
48823;SDS011;34640;53.590;10.054;2023-12-22T05:29:18;9.07;;;1.10;;
48823;SDS011;34640;53.590;10.054;2023-12-22T05:31:52;11.88;;;1.40;;
48823;SDS011;34640;53.590;10.054;2023-12-22T05:34:25;12.50;;;1.80;;
48823;SDS011;34640;53.590;10.054;2023-12-22T05:36:58;21.30;;;1.92;;
48823;SDS011;34640;53.590;10.054;2023-12-22T05:39:31;14.43;;;1.30;;
48823;SDS011;34640;53.590;10.054;2023-12-22T05:42:04;10.80;;;1.23;;
48823;SDS011;34640;53.590;10.054;2023-12-22T05:44:39;21.10;;;2.08;;
48823;SDS011;34640;53.590;10.054;2023-12-22T05:47:12;10.45;;;1.13;;
48823;SDS011;34640;53.590;10.054;2023-12-22T05:49:45;9.25;;;1.25;;
48823;SDS011;34640;53.590;10.054;2023-12-22T05:52:18;8.75;;;1.38;;
48823;SDS011;34640;53.590;10.054;2023-12-22T05:54:50;8.32;;;1.17;;
48823;SDS011;34640;53.590;10.054;2023-12-22T05:57:24;16.27;;;1.35;;
48823;SDS011;34640;53.590;10.054;2023-12-22T05:59:58;11.02;;;1.38;;
48823;SDS011;34640;53.590;10.054;2023-12-22T06:02:31;10.30;;;1.35;;
48823;SDS011;34640;53.590;10.054;2023-12-22T06:05:04;10.32;;;1.52;;
48823;SDS011;34640;53.590;10.054;2023-12-22T06:07:37;11.88;;;1.00;;
48823;SDS011;34640;53.590;10.054;2023-12-22T06:10:11;9.32;;;1.30;;
48823;SDS011;34640;53.590;10.054;2023-12-22T06:12:43;13.23;;;3.85;;
48823;SDS011;34640;53.590;10.054;2023-12-22T06:15:18;9.68;;;1.67;;
48823;SDS011;34640;53.590;10.054;2023-12-22T06:17:50;12.57;;;1.05;;
48823;SDS011;34640;53.590;10.054;2023-12-22T06:20:24;8.52;;;1.52;;
48823;SDS011;34640;53.590;10.054;2023-12-22T06:22:57;8.55;;;1.10;;
48823;SDS011;34640;53.590;10.054;2023-12-22T06:25:30;11.90;;;1.38;;
48823;SDS011;34640;53.590;10.054;2023-12-22T06:28:04;11.80;;;1.50;;
48823;SDS011;34640;53.590;10.054;2023-12-22T06:30:38;7.50;;;1.10;;
48823;SDS011;34640;53.590;10.054;2023-12-22T06:33:11;18.98;;;2.05;;
48823;SDS011;34640;53.590;10.054;2023-12-22T06:35:44;8.55;;;1.23;;
48823;SDS011;34640;53.590;10.054;2023-12-22T06:38:17;10.55;;;1.10;;
48823;SDS011;34640;53.590;10.054;2023-12-22T06:40:50;10.07;;;1.42;;
48823;SDS011;34640;53.590;10.054;2023-12-22T06:43:23;8.77;;;1.20;;
48823;SDS011;34640;53.590;10.054;2023-12-22T06:45:57;8.63;;;1.75;;
48823;SDS011;34640;53.590;10.054;2023-12-22T06:48:31;13.20;;;1.73;;
48823;SDS011;34640;53.590;10.054;2023-12-22T06:51:04;17.27;;;2.38;;
48823;SDS011;34640;53.590;10.054;2023-12-22T06:53:37;18.65;;;2.67;;
48823;SDS011;34640;53.590;10.054;2023-12-22T06:56:14;20.63;;;2.22;;
48823;SDS011;34640;53.590;10.054;2023-12-22T06:58:48;17.90;;;1.88;;
48823;SDS011;34640;53.590;10.054;2023-12-22T07:01:25;26.13;;;3.15;;
48823;SDS011;34640;53.590;10.054;2023-12-22T07:04:00;16.10;;;1.90;;
48823;SDS011;34640;53.590;10.054;2023-12-22T07:06:34;19.52;;;1.83;;
48823;SDS011;34640;53.590;10.054;2023-12-22T07:12:00;25.25;;;2.88;;
48823;SDS011;34640;53.590;10.054;2023-12-22T07:14:35;32.65;;;3.38;;
48823;SDS011;34640;53.590;10.054;2023-12-22T07:17:09;35.35;;;4.03;;
48823;SDS011;34640;53.590;10.054;2023-12-22T07:19:43;26.83;;;4.47;;
48823;SDS011;34640;53.590;10.054;2023-12-22T07:22:16;24.50;;;2.67;;
48823;SDS011;34640;53.590;10.054;2023-12-22T07:24:49;20.70;;;2.78;;
48823;SDS011;34640;53.590;10.054;2023-12-22T07:27:24;33.28;;;4.18;;
48823;SDS011;34640;53.590;10.054;2023-12-22T07:29:59;33.25;;;5.63;;
48823;SDS011;34640;53.590;10.054;2023-12-22T07:32:33;24.65;;;3.22;;
48823;SDS011;34640;53.590;10.054;2023-12-22T07:35:06;24.08;;;3.60;;
48823;SDS011;34640;53.590;10.054;2023-12-22T07:37:40;24.75;;;3.42;;
48823;SDS011;34640;53.590;10.054;2023-12-22T07:40:13;21.20;;;2.72;;
48823;SDS011;34640;53.590;10.054;2023-12-22T07:42:48;33.25;;;2.78;;
48823;SDS011;34640;53.590;10.054;2023-12-22T07:45:22;23.02;;;2.45;;
48823;SDS011;34640;53.590;10.054;2023-12-22T07:47:56;27.42;;;2.65;;
48823;SDS011;34640;53.590;10.054;2023-12-22T07:50:31;22.60;;;2.38;;
48823;SDS011;34640;53.590;10.054;2023-12-22T07:53:04;27.27;;;3.80;;
48823;SDS011;34640;53.590;10.054;2023-12-22T07:55:40;22.58;;;3.00;;
48823;SDS011;34640;53.590;10.054;2023-12-22T07:58:13;26.33;;;3.15;;
48823;SDS011;34640;53.590;10.054;2023-12-22T08:00:47;28.42;;;2.60;;
48823;SDS011;34640;53.590;10.054;2023-12-22T08:03:21;35.80;;;3.17;;
48823;SDS011;34640;53.590;10.054;2023-12-22T08:05:54;18.05;;;2.45;;
48823;SDS011;34640;53.590;10.054;2023-12-22T08:08:27;14.98;;;2.58;;
48823;SDS011;34640;53.590;10.054;2023-12-22T08:11:01;19.02;;;2.58;;
48823;SDS011;34640;53.590;10.054;2023-12-22T08:13:34;11.13;;;1.85;;
48823;SDS011;34640;53.590;10.054;2023-12-22T08:16:06;11.88;;;1.48;;
48823;SDS011;34640;53.590;10.054;2023-12-22T08:18:43;13.63;;;1.88;;
48823;SDS011;34640;53.590;10.054;2023-12-22T08:21:16;10.57;;;1.58;;
48823;SDS011;34640;53.590;10.054;2023-12-22T08:24:04;12.52;;;1.40;;
48823;SDS011;34640;53.590;10.054;2023-12-22T08:26:38;7.80;;;1.27;;
48823;SDS011;34640;53.590;10.054;2023-12-22T08:29:11;14.77;;;1.80;;
48823;SDS011;34640;53.590;10.054;2023-12-22T08:31:44;11.60;;;1.48;;
48823;SDS011;34640;53.590;10.054;2023-12-22T08:34:19;14.43;;;1.95;;
48823;SDS011;34640;53.590;10.054;2023-12-22T08:36:52;13.50;;;2.22;;
48823;SDS011;34640;53.590;10.054;2023-12-22T08:39:25;14.63;;;2.13;;
48823;SDS011;34640;53.590;10.054;2023-12-22T08:41:58;12.65;;;1.60;;
48823;SDS011;34640;53.590;10.054;2023-12-22T08:44:33;12.23;;;2.10;;
48823;SDS011;34640;53.590;10.054;2023-12-22T08:47:06;13.60;;;1.52;;
48823;SDS011;34640;53.590;10.054;2023-12-22T08:49:41;18.15;;;1.88;;
48823;SDS011;34640;53.590;10.054;2023-12-22T08:52:14;16.02;;;1.95;;
48823;SDS011;34640;53.590;10.054;2023-12-22T08:54:46;18.38;;;1.92;;
48823;SDS011;34640;53.590;10.054;2023-12-22T08:57:19;15.68;;;1.83;;
48823;SDS011;34640;53.590;10.054;2023-12-22T08:59:52;24.55;;;1.63;;
48823;SDS011;34640;53.590;10.054;2023-12-22T09:02:27;16.83;;;1.65;;
48823;SDS011;34640;53.590;10.054;2023-12-22T09:05:02;28.23;;;2.63;;
48823;SDS011;34640;53.590;10.054;2023-12-22T09:07:37;14.63;;;1.73;;
48823;SDS011;34640;53.590;10.054;2023-12-22T09:10:10;10.07;;;1.45;;
48823;SDS011;34640;53.590;10.054;2023-12-22T09:12:45;28.20;;;3.00;;
48823;SDS011;34640;53.590;10.054;2023-12-22T09:15:18;16.05;;;1.60;;
48823;SDS011;34640;53.590;10.054;2023-12-22T09:17:51;13.90;;;1.60;;
48823;SDS011;34640;53.590;10.054;2023-12-22T09:20:26;10.77;;;1.52;;
48823;SDS011;34640;53.590;10.054;2023-12-22T09:23:01;12.68;;;1.65;;
48823;SDS011;34640;53.590;10.054;2023-12-22T09:25:38;9.65;;;1.17;;
48823;SDS011;34640;53.590;10.054;2023-12-22T09:28:11;10.75;;;1.35;;
48823;SDS011;34640;53.590;10.054;2023-12-22T09:30:45;22.83;;;2.38;;
48823;SDS011;34640;53.590;10.054;2023-12-22T09:33:20;12.18;;;1.70;;
48823;SDS011;34640;53.590;10.054;2023-12-22T09:35:56;13.93;;;1.38;;
48823;SDS011;34640;53.590;10.054;2023-12-22T09:38:29;13.88;;;1.05;;
48823;SDS011;34640;53.590;10.054;2023-12-22T09:41:02;15.27;;;2.00;;
48823;SDS011;34640;53.590;10.054;2023-12-22T09:43:36;17.42;;;1.50;;
48823;SDS011;34640;53.590;10.054;2023-12-22T09:46:11;20.13;;;1.83;;
48823;SDS011;34640;53.590;10.054;2023-12-22T09:48:45;17.45;;;1.70;;
48823;SDS011;34640;53.590;10.054;2023-12-22T09:51:20;16.48;;;1.52;;
48823;SDS011;34640;53.590;10.054;2023-12-22T09:53:54;14.50;;;1.70;;
48823;SDS011;34640;53.590;10.054;2023-12-22T09:56:34;21.80;;;1.75;;
48823;SDS011;34640;53.590;10.054;2023-12-22T09:59:13;18.60;;;2.00;;
48823;SDS011;34640;53.590;10.054;2023-12-22T10:01:47;17.98;;;2.13;;
48823;SDS011;34640;53.590;10.054;2023-12-22T10:04:22;13.07;;;1.80;;
48823;SDS011;34640;53.590;10.054;2023-12-22T10:06:58;11.88;;;1.42;;
48823;SDS011;34640;53.590;10.054;2023-12-22T10:09:32;17.35;;;1.90;;
48823;SDS011;34640;53.590;10.054;2023-12-22T10:12:07;20.67;;;1.98;;
48823;SDS011;34640;53.590;10.054;2023-12-22T10:14:43;25.98;;;3.17;;
48823;SDS011;34640;53.590;10.054;2023-12-22T10:17:17;21.38;;;1.60;;
48823;SDS011;34640;53.590;10.054;2023-12-22T10:19:50;14.88;;;2.25;;
48823;SDS011;34640;53.590;10.054;2023-12-22T10:22:24;22.55;;;2.10;;
48823;SDS011;34640;53.590;10.054;2023-12-22T10:24:57;16.90;;;3.03;;
48823;SDS011;34640;53.590;10.054;2023-12-22T10:27:31;21.48;;;3.00;;
48823;SDS011;34640;53.590;10.054;2023-12-22T10:30:04;18.10;;;1.70;;
48823;SDS011;34640;53.590;10.054;2023-12-22T10:32:39;26.15;;;1.70;;
48823;SDS011;34640;53.590;10.054;2023-12-22T10:35:13;19.77;;;3.35;;
48823;SDS011;34640;53.590;10.054;2023-12-22T10:37:47;22.33;;;2.63;;
48823;SDS011;34640;53.590;10.054;2023-12-22T10:40:24;11.97;;;2.50;;
48823;SDS011;34640;53.590;10.054;2023-12-22T10:42:58;16.00;;;2.80;;
48823;SDS011;34640;53.590;10.054;2023-12-22T10:45:31;18.85;;;2.08;;
48823;SDS011;34640;53.590;10.054;2023-12-22T10:48:05;19.80;;;1.95;;
48823;SDS011;34640;53.590;10.054;2023-12-22T10:50:40;11.65;;;2.05;;
48823;SDS011;34640;53.590;10.054;2023-12-22T10:53:15;26.88;;;2.55;;
48823;SDS011;34640;53.590;10.054;2023-12-22T10:55:49;19.63;;;2.58;;
48823;SDS011;34640;53.590;10.054;2023-12-22T10:58:24;13.32;;;3.22;;
48823;SDS011;34640;53.590;10.054;2023-12-22T11:00:59;21.13;;;3.22;;
48823;SDS011;34640;53.590;10.054;2023-12-22T11:03:34;16.23;;;1.77;;
48823;SDS011;34640;53.590;10.054;2023-12-22T11:06:12;12.48;;;1.42;;
48823;SDS011;34640;53.590;10.054;2023-12-22T11:08:49;16.80;;;1.80;;
48823;SDS011;34640;53.590;10.054;2023-12-22T11:11:26;11.73;;;1.42;;
48823;SDS011;34640;53.590;10.054;2023-12-22T11:14:01;15.35;;;1.25;;
48823;SDS011;34640;53.590;10.054;2023-12-22T11:16:36;15.43;;;1.70;;
48823;SDS011;34640;53.590;10.054;2023-12-22T11:19:11;17.85;;;1.95;;
48823;SDS011;34640;53.590;10.054;2023-12-22T11:21:45;15.30;;;2.47;;
48823;SDS011;34640;53.590;10.054;2023-12-22T11:24:26;10.63;;;1.58;;
48823;SDS011;34640;53.590;10.054;2023-12-22T11:27:03;16.80;;;1.83;;
48823;SDS011;34640;53.590;10.054;2023-12-22T11:29:38;13.15;;;1.98;;
48823;SDS011;34640;53.590;10.054;2023-12-22T11:32:14;19.27;;;2.55;;
48823;SDS011;34640;53.590;10.054;2023-12-22T11:34:48;11.75;;;3.25;;
48823;SDS011;34640;53.590;10.054;2023-12-22T11:37:21;11.88;;;1.80;;
48823;SDS011;34640;53.590;10.054;2023-12-22T11:39:55;18.20;;;3.03;;
48823;SDS011;34640;53.590;10.054;2023-12-22T11:42:29;13.10;;;1.85;;
48823;SDS011;34640;53.590;10.054;2023-12-22T11:45:09;17.88;;;1.95;;
48823;SDS011;34640;53.590;10.054;2023-12-22T11:47:43;10.77;;;1.65;;
48823;SDS011;34640;53.590;10.054;2023-12-22T11:50:27;21.20;;;1.50;;
48823;SDS011;34640;53.590;10.054;2023-12-22T11:53:17;13.93;;;1.45;;
48823;SDS011;34640;53.590;10.054;2023-12-22T11:56:02;21.38;;;2.28;;
48823;SDS011;34640;53.590;10.054;2023-12-22T11:58:39;15.18;;;2.20;;
48823;SDS011;34640;53.590;10.054;2023-12-22T12:01:12;17.08;;;1.58;;
48823;SDS011;34640;53.590;10.054;2023-12-22T12:03:48;22.92;;;3.63;;
48823;SDS011;34640;53.590;10.054;2023-12-22T12:06:31;16.58;;;1.98;;
48823;SDS011;34640;53.590;10.054;2023-12-22T12:09:06;16.15;;;1.95;;
48823;SDS011;34640;53.590;10.054;2023-12-22T12:14:44;19.33;;;2.25;;
48823;SDS011;34640;53.590;10.054;2023-12-22T12:17:23;18.48;;;2.00;;
48823;SDS011;34640;53.590;10.054;2023-12-22T12:19:56;17.65;;;2.08;;
48823;SDS011;34640;53.590;10.054;2023-12-22T12:22:30;26.50;;;2.65;;
48823;SDS011;34640;53.590;10.054;2023-12-22T12:25:06;18.92;;;2.15;;
48823;SDS011;34640;53.590;10.054;2023-12-22T12:28:03;15.63;;;2.45;;
48823;SDS011;34640;53.590;10.054;2023-12-22T12:30:37;22.38;;;3.05;;
48823;SDS011;34640;53.590;10.054;2023-12-22T12:33:12;25.05;;;3.00;;
48823;SDS011;34640;53.590;10.054;2023-12-22T12:35:47;19.25;;;2.08;;
48823;SDS011;34640;53.590;10.054;2023-12-22T12:38:28;19.45;;;2.35;;
48823;SDS011;34640;53.590;10.054;2023-12-22T12:41:11;16.35;;;1.40;;
48823;SDS011;34640;53.590;10.054;2023-12-22T12:43:48;20.95;;;1.85;;
48823;SDS011;34640;53.590;10.054;2023-12-22T12:46:23;20.45;;;2.85;;
48823;SDS011;34640;53.590;10.054;2023-12-22T12:49:02;20.70;;;2.22;;
48823;SDS011;34640;53.590;10.054;2023-12-22T12:51:36;23.35;;;2.53;;
48823;SDS011;34640;53.590;10.054;2023-12-22T12:54:10;19.83;;;2.50;;
48823;SDS011;34640;53.590;10.054;2023-12-22T12:56:45;15.77;;;2.03;;
48823;SDS011;34640;53.590;10.054;2023-12-22T12:59:21;15.95;;;1.90;;
48823;SDS011;34640;53.590;10.054;2023-12-22T13:01:54;17.23;;;1.90;;
48823;SDS011;34640;53.590;10.054;2023-12-22T13:04:36;13.77;;;2.53;;
48823;SDS011;34640;53.590;10.054;2023-12-22T13:07:10;11.32;;;1.80;;
48823;SDS011;34640;53.590;10.054;2023-12-22T13:09:44;16.40;;;1.88;;
48823;SDS011;34640;53.590;10.054;2023-12-22T13:12:17;11.05;;;1.63;;
48823;SDS011;34640;53.590;10.054;2023-12-22T13:14:51;12.23;;;1.83;;
48823;SDS011;34640;53.590;10.054;2023-12-22T13:17:24;14.55;;;3.25;;
48823;SDS011;34640;53.590;10.054;2023-12-22T13:19:57;15.70;;;1.90;;
48823;SDS011;34640;53.590;10.054;2023-12-22T13:22:31;22.50;;;1.98;;
48823;SDS011;34640;53.590;10.054;2023-12-22T13:25:04;21.42;;;1.80;;
48823;SDS011;34640;53.590;10.054;2023-12-22T13:27:44;23.73;;;1.77;;
48823;SDS011;34640;53.590;10.054;2023-12-22T13:30:34;37.70;;;2.78;;
48823;SDS011;34640;53.590;10.054;2023-12-22T13:33:09;14.57;;;1.73;;
48823;SDS011;34640;53.590;10.054;2023-12-22T13:35:43;18.35;;;2.30;;
48823;SDS011;34640;53.590;10.054;2023-12-22T13:38:17;17.83;;;2.40;;
48823;SDS011;34640;53.590;10.054;2023-12-22T13:40:53;17.17;;;1.92;;
48823;SDS011;34640;53.590;10.054;2023-12-22T13:43:27;21.45;;;2.50;;
48823;SDS011;34640;53.590;10.054;2023-12-22T13:46:02;17.90;;;2.47;;
48823;SDS011;34640;53.590;10.054;2023-12-22T13:48:35;17.63;;;2.08;;
48823;SDS011;34640;53.590;10.054;2023-12-22T13:51:09;13.88;;;2.17;;
48823;SDS011;34640;53.590;10.054;2023-12-22T13:53:49;15.68;;;2.42;;
48823;SDS011;34640;53.590;10.054;2023-12-22T13:56:23;13.18;;;1.92;;
48823;SDS011;34640;53.590;10.054;2023-12-22T13:58:56;17.38;;;1.83;;
48823;SDS011;34640;53.590;10.054;2023-12-22T14:01:30;16.30;;;2.00;;
48823;SDS011;34640;53.590;10.054;2023-12-22T14:04:04;12.57;;;1.50;;
48823;SDS011;34640;53.590;10.054;2023-12-22T14:06:37;12.23;;;2.03;;
48823;SDS011;34640;53.590;10.054;2023-12-22T14:09:10;8.60;;;1.42;;
48823;SDS011;34640;53.590;10.054;2023-12-22T14:11:43;18.75;;;1.90;;
48823;SDS011;34640;53.590;10.054;2023-12-22T14:14:30;17.13;;;3.78;;
48823;SDS011;34640;53.590;10.054;2023-12-22T14:17:04;19.50;;;1.83;;
48823;SDS011;34640;53.590;10.054;2023-12-22T14:19:38;10.48;;;1.50;;
48823;SDS011;34640;53.590;10.054;2023-12-22T14:22:12;13.13;;;2.33;;
48823;SDS011;34640;53.590;10.054;2023-12-22T14:24:45;12.80;;;1.77;;
48823;SDS011;34640;53.590;10.054;2023-12-22T14:27:18;18.00;;;1.90;;
48823;SDS011;34640;53.590;10.054;2023-12-22T14:29:51;13.18;;;1.40;;
48823;SDS011;34640;53.590;10.054;2023-12-22T14:32:26;16.90;;;1.70;;
48823;SDS011;34640;53.590;10.054;2023-12-22T14:35:01;15.35;;;1.73;;
48823;SDS011;34640;53.590;10.054;2023-12-22T14:37:37;22.80;;;2.15;;
48823;SDS011;34640;53.590;10.054;2023-12-22T14:40:10;11.07;;;1.50;;
48823;SDS011;34640;53.590;10.054;2023-12-22T14:42:43;12.75;;;1.10;;
48823;SDS011;34640;53.590;10.054;2023-12-22T14:45:15;11.05;;;1.40;;
48823;SDS011;34640;53.590;10.054;2023-12-22T14:47:53;16.67;;;1.52;;
48823;SDS011;34640;53.590;10.054;2023-12-22T14:50:26;14.82;;;1.70;;
48823;SDS011;34640;53.590;10.054;2023-12-22T14:52:59;12.25;;;1.20;;
48823;SDS011;34640;53.590;10.054;2023-12-22T14:55:32;13.93;;;1.52;;
48823;SDS011;34640;53.590;10.054;2023-12-22T14:58:05;17.65;;;2.20;;
48823;SDS011;34640;53.590;10.054;2023-12-22T15:00:40;26.45;;;6.88;;
48823;SDS011;34640;53.590;10.054;2023-12-22T15:03:14;21.27;;;1.80;;
48823;SDS011;34640;53.590;10.054;2023-12-22T15:05:47;10.32;;;1.58;;
48823;SDS011;34640;53.590;10.054;2023-12-22T15:08:21;10.65;;;2.10;;
48823;SDS011;34640;53.590;10.054;2023-12-22T15:10:53;19.08;;;2.15;;
48823;SDS011;34640;53.590;10.054;2023-12-22T15:13:26;14.02;;;1.55;;